createdAt,value
2017-10-13T00:01:25.566Z,24.50
2017-10-13T00:03:53.053Z,25.10
2017-10-13T00:06:20.506Z,28.63
2017-10-13T00:08:47.978Z,28.07
2017-10-13T00:11:16.212Z,26.37
2017-10-13T00:13:43.675Z,27.67
2017-10-13T00:16:11.164Z,20.40
2017-10-13T00:18:39.394Z,30.93
2017-10-13T00:21:06.836Z,20.90
2017-10-13T00:23:34.333Z,34.13
2017-10-13T00:26:01.791Z,25.67
2017-10-13T00:28:29.240Z,19.50
2017-10-13T00:30:56.718Z,43.40
2017-10-13T00:33:24.194Z,30.90
2017-10-13T00:35:52.410Z,27.03
2017-10-13T00:38:19.881Z,26.53
2017-10-13T00:40:47.341Z,39.57
2017-10-13T00:43:14.810Z,27.43
2017-10-13T00:45:42.293Z,28.17
2017-10-13T00:48:09.745Z,18.83
2017-10-13T00:50:37.228Z,23.03
2017-10-13T00:53:05.462Z,26.37
2017-10-13T00:55:32.917Z,40.23
2017-10-13T00:58:00.401Z,19.47
2017-10-13T01:00:27.869Z,21.63
2017-10-13T01:02:56.081Z,40.20
2017-10-13T01:05:23.563Z,44.83
2017-10-13T01:07:51.812Z,34.97
2017-10-13T01:10:19.258Z,34.50
2017-10-13T01:12:46.738Z,35.47
2017-10-13T01:15:14.213Z,21.37
2017-10-13T01:17:41.661Z,26.67
2017-10-13T01:20:09.119Z,22.50
2017-10-13T01:22:36.609Z,34.00
2017-10-13T01:25:04.066Z,26.77
2017-10-13T01:27:31.521Z,21.77
2017-10-13T01:29:59.013Z,41.07
2017-10-13T01:32:27.270Z,25.50
2017-10-13T01:34:54.716Z,26.13
2017-10-13T01:37:22.173Z,45.27
2017-10-13T01:39:49.657Z,40.10
2017-10-13T01:42:17.884Z,28.43
2017-10-13T01:44:45.334Z,34.10
2017-10-13T01:47:12.828Z,32.90
2017-10-13T01:49:40.287Z,24.20
2017-10-13T01:52:08.185Z,30.10
2017-10-13T01:54:36.434Z,28.73
2017-10-13T01:57:03.881Z,14.87
2017-10-13T01:59:31.369Z,32.67
2017-10-13T02:01:59.598Z,44.30
2017-10-13T02:04:27.084Z,37.57
2017-10-13T02:06:54.551Z,43.23
2017-10-13T02:09:22.302Z,28.10
2017-10-13T02:11:49.797Z,33.00
2017-10-13T02:14:17.258Z,32.27
2017-10-13T02:16:44.729Z,21.40
2017-10-13T02:19:12.181Z,29.67
2017-10-13T02:21:39.674Z,21.33
2017-10-13T02:24:07.125Z,37.63
2017-10-13T02:26:34.578Z,28.70
2017-10-13T02:29:02.120Z,17.83
2017-10-13T02:31:29.582Z,36.70
2017-10-13T02:33:57.037Z,32.70
2017-10-13T02:36:24.514Z,31.03
2017-10-13T02:38:51.969Z,31.20
2017-10-13T02:41:19.458Z,33.30
2017-10-13T02:43:46.909Z,34.00
2017-10-13T02:46:14.370Z,29.27
2017-10-13T02:48:41.836Z,25.47
2017-10-13T02:51:09.357Z,35.17
2017-10-13T02:53:36.834Z,25.73
2017-10-13T02:56:04.591Z,35.80
2017-10-13T02:58:32.061Z,33.00
2017-10-13T03:00:59.514Z,30.40
2017-10-13T03:03:27.010Z,38.60
2017-10-13T03:05:54.466Z,30.47
2017-10-13T03:08:21.917Z,34.43
2017-10-13T03:10:49.395Z,23.60
2017-10-13T03:13:16.885Z,28.43
2017-10-13T03:15:44.342Z,32.40
2017-10-13T03:18:11.797Z,42.47
2017-10-13T03:20:40.762Z,41.33
2017-10-13T03:23:08.982Z,39.57
2017-10-13T03:25:36.460Z,29.30
2017-10-13T03:28:03.924Z,41.97
2017-10-13T03:30:31.383Z,38.90
2017-10-13T03:32:58.861Z,34.83
2017-10-13T03:35:27.091Z,18.67
2017-10-13T03:37:54.546Z,32.97
2017-10-13T03:40:22.021Z,23.47
2017-10-13T03:42:49.478Z,22.80
2017-10-13T03:45:16.957Z,49.43
2017-10-13T03:47:44.414Z,24.87
2017-10-13T03:50:11.873Z,32.00
2017-10-13T03:52:39.349Z,37.47
2017-10-13T03:55:07.566Z,26.93
2017-10-13T03:57:35.047Z,49.73
2017-10-13T04:00:02.532Z,29.07
2017-10-13T04:02:30.754Z,33.97
2017-10-13T04:04:58.210Z,49.67
2017-10-13T04:07:25.689Z,37.23
2017-10-13T04:09:53.182Z,47.53
2017-10-13T04:12:21.416Z,25.43
2017-10-13T04:14:48.871Z,38.50
2017-10-13T04:17:16.358Z,29.33
2017-10-13T04:19:43.825Z,39.47
2017-10-13T04:22:11.277Z,37.20
2017-10-13T04:24:38.746Z,31.57
2017-10-13T04:27:06.197Z,42.37
2017-10-13T04:29:33.673Z,36.17
2017-10-13T04:32:01.895Z,35.67
2017-10-13T04:34:29.383Z,27.73
2017-10-13T04:36:56.842Z,29.10
2017-10-13T04:39:24.304Z,45.53
2017-10-13T04:41:51.781Z,28.70
2017-10-13T04:44:20.017Z,31.87
2017-10-13T04:46:47.500Z,28.70
2017-10-13T04:49:15.049Z,30.70
2017-10-13T04:51:42.541Z,40.73
2017-10-13T04:54:09.991Z,35.40
2017-10-13T04:56:37.446Z,31.20
2017-10-13T04:59:04.914Z,39.50
2017-10-13T05:01:32.373Z,27.43
2017-10-13T05:03:59.844Z,27.43
2017-10-13T05:06:27.306Z,32.58
2017-10-13T05:08:54.799Z,35.17
2017-10-13T05:11:22.260Z,28.93
2017-10-13T05:13:49.709Z,29.80
2017-10-13T05:16:17.192Z,37.57
2017-10-13T05:18:44.653Z,26.80
2017-10-13T05:21:13.263Z,28.40
2017-10-13T05:23:42.428Z,30.97
2017-10-13T05:26:09.901Z,31.60
2017-10-13T05:28:37.395Z,34.77
2017-10-13T05:31:04.854Z,46.27
2017-10-13T05:33:32.316Z,42.27
2017-10-13T05:35:59.816Z,38.07
2017-10-13T05:38:27.268Z,71.60
2017-10-13T05:40:54.753Z,37.07
2017-10-13T05:43:22.976Z,32.20
2017-10-13T05:45:50.471Z,49.60
2017-10-13T05:48:17.948Z,37.03
2017-10-13T05:50:45.413Z,53.60
2017-10-13T05:53:12.870Z,26.33
2017-10-13T05:55:40.373Z,37.37
2017-10-13T05:58:08.681Z,35.23
2017-10-13T06:00:36.150Z,34.97
2017-10-13T06:03:03.617Z,47.10
2017-10-13T06:05:31.871Z,47.40
2017-10-13T06:07:59.388Z,35.13
2017-10-13T06:10:26.859Z,39.53
2017-10-13T06:12:54.321Z,22.73
2017-10-13T06:15:22.580Z,40.27
2017-10-13T06:17:50.054Z,27.73
2017-10-13T06:20:17.534Z,38.93
2017-10-13T06:22:45.009Z,28.43
2017-10-13T06:25:13.422Z,41.90
2017-10-13T06:27:40.873Z,28.87
2017-10-13T06:30:09.097Z,41.03
2017-10-13T06:32:36.583Z,29.90
2017-10-13T06:35:04.039Z,27.73
2017-10-13T06:37:31.517Z,39.80
2017-10-13T06:39:59.798Z,27.50
2017-10-13T06:42:28.018Z,51.60
2017-10-13T06:44:56.275Z,42.07
2017-10-13T06:47:23.743Z,47.07
2017-10-13T06:49:51.221Z,34.87
2017-10-13T06:52:18.680Z,38.73
2017-10-13T06:54:46.154Z,35.67
2017-10-13T06:57:14.830Z,30.37
2017-10-13T06:59:42.307Z,40.47
2017-10-13T07:02:09.788Z,47.17
2017-10-13T07:04:38.012Z,50.03
2017-10-13T07:07:05.498Z,69.87
2017-10-13T07:09:32.969Z,36.00
2017-10-13T07:12:01.237Z,36.67
2017-10-13T07:14:28.694Z,40.37
2017-10-13T07:16:56.150Z,50.80
2017-10-13T07:19:23.633Z,29.87
2017-10-13T07:21:51.896Z,46.90
2017-10-13T07:24:19.343Z,49.27
2017-10-13T07:26:46.826Z,51.37
2017-10-13T07:29:15.344Z,61.67
2017-10-13T07:31:42.826Z,66.73
2017-10-13T07:34:10.313Z,77.53
2017-10-13T07:36:38.533Z,47.83
2017-10-13T07:39:06.073Z,103.33
2017-10-13T07:41:33.550Z,89.53
2017-10-13T07:44:01.029Z,97.37
2017-10-13T07:46:28.487Z,91.23
2017-10-13T07:48:55.962Z,93.67
2017-10-13T07:51:23.458Z,78.23
2017-10-13T07:53:50.915Z,81.23
2017-10-13T07:56:18.373Z,86.00
2017-10-13T07:58:45.868Z,83.37
2017-10-13T08:03:47.129Z,85.70
2017-10-13T08:06:15.366Z,92.20
2017-10-13T08:08:42.938Z,98.73
2017-10-13T08:11:10.395Z,115.03
2017-10-13T08:13:37.894Z,96.00
2017-10-13T08:16:05.353Z,66.80
2017-10-13T08:18:32.810Z,83.10
2017-10-13T08:21:00.282Z,63.77
2017-10-13T08:23:27.745Z,60.00
2017-10-13T08:25:55.236Z,85.13
2017-10-13T08:28:22.779Z,65.93
2017-10-13T08:30:51.018Z,76.43
2017-10-13T08:33:18.527Z,57.57
2017-10-13T08:35:46.752Z,52.93
2017-10-13T08:38:14.213Z,59.77
2017-10-13T08:40:41.701Z,60.43
2017-10-13T08:43:09.157Z,56.67
2017-10-13T08:45:36.613Z,41.83
2017-10-13T08:48:04.110Z,53.87
2017-10-13T08:50:31.577Z,53.13
2017-10-13T08:52:59.048Z,52.63
2017-10-13T08:55:26.539Z,56.00
2017-10-13T08:57:53.998Z,55.37
2017-10-13T09:00:21.453Z,52.63
2017-10-13T09:02:48.953Z,44.97
2017-10-13T09:05:16.428Z,51.93
2017-10-13T09:07:43.894Z,42.53
2017-10-13T09:10:11.388Z,44.47
2017-10-13T09:12:38.869Z,46.30
2017-10-13T09:15:07.090Z,41.90
2017-10-13T09:17:34.574Z,36.93
2017-10-13T09:20:02.029Z,35.30
2017-10-13T09:25:28.401Z,46.43
2017-10-13T09:27:55.903Z,44.13
2017-10-13T09:30:23.397Z,40.83
2017-10-13T09:32:50.858Z,38.03
2017-10-13T09:35:18.354Z,42.53
2017-10-13T09:37:47.513Z,37.93
2017-10-13T09:40:14.970Z,52.63
2017-10-13T09:42:42.474Z,44.70
2017-10-13T09:45:09.953Z,39.13
2017-10-13T09:47:37.457Z,37.00
2017-10-13T09:50:04.978Z,47.33
2017-10-13T09:52:32.437Z,39.00
2017-10-13T09:54:59.902Z,38.33
2017-10-13T09:57:27.374Z,37.70
2017-10-13T09:59:54.837Z,43.03
2017-10-13T10:02:22.315Z,48.10
2017-10-13T10:04:49.831Z,41.73
2017-10-13T10:07:18.146Z,38.40
2017-10-13T10:09:45.601Z,41.17
2017-10-13T10:12:13.082Z,51.17
2017-10-13T10:14:41.325Z,51.40
2017-10-13T10:17:09.585Z,67.87
2017-10-13T10:19:37.089Z,50.83
2017-10-13T10:22:05.313Z,48.63
2017-10-13T10:24:32.808Z,43.10
2017-10-13T10:27:00.266Z,42.53
2017-10-13T10:29:27.731Z,47.37
2017-10-13T10:31:55.207Z,41.47
2017-10-13T10:34:23.437Z,41.43
2017-10-13T10:36:50.913Z,36.70
2017-10-13T10:39:18.372Z,29.77
2017-10-13T10:41:45.869Z,34.07
2017-10-13T10:44:13.338Z,29.40
2017-10-13T10:46:40.833Z,20.27
2017-10-13T10:49:08.298Z,38.17
2017-10-13T10:51:35.765Z,31.33
2017-10-13T10:54:03.241Z,38.00
2017-10-13T10:56:30.722Z,25.30
2017-10-13T10:58:58.398Z,30.37
2017-10-13T11:01:25.878Z,21.13
2017-10-13T11:03:53.364Z,31.90
2017-10-13T11:06:20.874Z,26.07
2017-10-13T11:08:48.325Z,35.53
2017-10-13T11:11:15.797Z,40.10
2017-10-13T11:13:43.257Z,29.10
2017-10-13T11:16:10.717Z,22.60
2017-10-13T11:18:38.198Z,25.60
2017-10-13T11:21:05.653Z,25.40
2017-10-13T11:23:33.146Z,28.83
2017-10-13T11:26:01.378Z,32.17
2017-10-13T11:28:28.849Z,25.43
2017-10-13T11:30:56.310Z,31.23
2017-10-13T11:33:23.780Z,36.43
2017-10-13T11:35:51.238Z,24.20
2017-10-13T11:38:19.601Z,24.90
2017-10-13T11:40:48.758Z,25.63
2017-10-13T11:43:16.253Z,23.67
2017-10-13T11:45:43.713Z,21.43
2017-10-13T11:48:11.177Z,24.03
2017-10-13T11:50:38.657Z,22.63
2017-10-13T11:53:06.122Z,21.13
2017-10-13T11:55:33.622Z,21.13
2017-10-13T11:58:01.085Z,18.83
2017-10-13T12:00:28.542Z,21.37
2017-10-13T12:02:56.039Z,18.77
2017-10-13T12:05:23.495Z,15.70
2017-10-13T12:07:50.965Z,11.53
2017-10-13T12:10:20.096Z,17.70
2017-10-13T12:12:47.580Z,25.30
2017-10-13T12:15:15.058Z,18.20
2017-10-13T12:17:42.513Z,16.83
2017-10-13T12:20:10.022Z,26.63
2017-10-13T12:22:37.495Z,20.50
2017-10-13T12:25:04.955Z,27.33
2017-10-13T12:27:32.441Z,24.10
2017-10-13T12:29:59.926Z,17.90
2017-10-13T12:32:27.401Z,22.37
2017-10-13T12:34:55.633Z,20.93
2017-10-13T12:37:23.266Z,13.00
2017-10-13T12:39:50.791Z,19.50
2017-10-13T12:42:19.965Z,13.87
2017-10-13T12:44:47.449Z,21.43
2017-10-13T12:47:14.909Z,20.40
2017-10-13T12:49:42.389Z,23.83
2017-10-13T12:52:10.277Z,21.53
2017-10-13T12:54:37.728Z,24.87
2017-10-13T12:57:05.218Z,24.60
2017-10-13T12:59:32.689Z,22.70
2017-10-13T13:02:00.170Z,24.73
2017-10-13T13:04:28.405Z,25.37
2017-10-13T13:06:55.880Z,21.30
2017-10-13T13:09:23.388Z,22.93
2017-10-13T13:11:50.869Z,22.33
2017-10-13T13:14:18.334Z,35.40
2017-10-13T13:16:45.805Z,20.53
2017-10-13T13:19:13.310Z,21.20
2017-10-13T13:21:40.798Z,18.90
2017-10-13T13:24:08.297Z,17.43
2017-10-13T13:26:35.761Z,18.93
2017-10-13T13:29:03.246Z,19.27
2017-10-13T13:31:30.709Z,16.90
2017-10-13T13:33:58.166Z,21.63
2017-10-13T13:36:25.653Z,18.93
2017-10-13T13:38:53.122Z,18.07
2017-10-13T13:41:21.053Z,21.07
2017-10-13T13:43:48.520Z,26.07
2017-10-13T13:46:16.002Z,22.27
2017-10-13T13:48:43.473Z,21.80
2017-10-13T13:51:10.961Z,18.17
2017-10-13T13:53:39.271Z,16.40
2017-10-13T13:56:06.781Z,14.23
2017-10-13T13:58:34.254Z,15.33
2017-10-13T14:01:01.717Z,16.30
2017-10-13T14:03:29.197Z,38.47
2017-10-13T14:05:56.667Z,17.57
2017-10-13T14:08:24.230Z,18.20
2017-10-13T14:10:51.699Z,30.80
2017-10-13T14:13:19.163Z,18.97
2017-10-13T14:15:46.633Z,14.77
2017-10-13T14:18:14.114Z,16.50
2017-10-13T14:20:41.606Z,15.53
2017-10-13T14:23:09.073Z,23.20
2017-10-13T14:25:36.552Z,19.67
2017-10-13T14:28:04.125Z,18.90
2017-10-13T14:30:32.767Z,16.97
2017-10-13T14:33:00.906Z,16.37
2017-10-13T14:35:28.533Z,18.63
2017-10-13T14:37:56.012Z,41.73
2017-10-13T14:40:23.506Z,14.73
2017-10-13T14:42:51.165Z,12.97
2017-10-13T14:45:19.033Z,12.53
2017-10-13T14:47:47.296Z,20.03
2017-10-13T14:50:14.758Z,17.93
2017-10-13T14:52:42.227Z,14.53
2017-10-13T14:55:10.122Z,12.90
2017-10-13T14:57:37.852Z,14.10
2017-10-13T15:00:06.130Z,14.40
2017-10-13T15:02:34.375Z,18.50
2017-10-13T15:05:01.846Z,16.77
2017-10-13T15:07:29.298Z,15.53
2017-10-13T15:09:56.777Z,15.23
2017-10-13T15:12:24.272Z,19.03
2017-10-13T15:14:52.700Z,19.27
2017-10-13T15:17:20.236Z,14.47
2017-10-13T15:19:47.690Z,15.80
2017-10-13T15:22:15.190Z,15.53
2017-10-13T15:24:48.410Z,14.53
2017-10-13T15:27:21.519Z,25.70
2017-10-13T15:29:54.585Z,25.87
2017-10-13T15:35:30.345Z,21.20
2017-10-13T15:38:04.269Z,23.00
2017-10-13T15:40:37.305Z,24.87
2017-10-13T15:43:10.433Z,19.07
2017-10-13T15:45:43.489Z,19.67
2017-10-13T15:48:25.618Z,19.30
2017-10-13T15:50:59.189Z,20.67
2017-10-13T15:53:26.677Z,18.83
2017-10-13T15:55:54.137Z,24.10
2017-10-13T15:58:22.369Z,15.00
2017-10-13T16:00:49.907Z,18.70
2017-10-13T16:03:17.373Z,25.83
2017-10-13T16:05:44.837Z,16.57
2017-10-13T16:08:12.345Z,21.87
2017-10-13T16:10:40.571Z,17.97
2017-10-13T16:13:08.052Z,19.87
2017-10-13T16:15:35.530Z,20.10
2017-10-13T16:18:03.009Z,25.87
2017-10-13T16:20:31.254Z,14.53
2017-10-13T16:22:58.733Z,19.40
2017-10-13T16:25:26.953Z,21.37
2017-10-13T16:27:54.437Z,17.10
2017-10-13T16:30:21.973Z,17.07
2017-10-13T16:32:49.424Z,12.50
2017-10-13T16:35:17.093Z,11.53
2017-10-13T16:37:44.790Z,12.87
2017-10-13T16:40:12.577Z,13.63
2017-10-13T16:42:40.339Z,11.40
2017-10-13T16:45:08.937Z,11.73
2017-10-13T16:47:37.380Z,20.80
2017-10-13T16:50:05.914Z,21.00
2017-10-13T16:52:33.440Z,29.10
2017-10-13T16:55:01.087Z,19.17
2017-10-13T16:57:28.832Z,16.63
2017-10-13T16:59:56.374Z,37.50
2017-10-13T17:02:23.852Z,26.03
2017-10-13T17:04:51.586Z,15.70
2017-10-13T17:07:20.017Z,11.50
2017-10-13T17:09:47.636Z,8.73
2017-10-13T17:12:15.140Z,13.47
2017-10-13T17:14:43.030Z,10.60
2017-10-13T17:17:10.545Z,12.40
2017-10-13T17:19:38.141Z,13.07
2017-10-13T17:22:05.862Z,11.13
2017-10-13T17:24:34.173Z,13.40
2017-10-13T17:27:01.920Z,15.10
2017-10-13T17:29:29.504Z,11.73
2017-10-13T17:31:57.264Z,11.57
2017-10-13T17:34:26.358Z,12.27
2017-10-13T17:36:54.033Z,8.97
2017-10-13T17:39:22.477Z,9.60
2017-10-13T17:41:50.189Z,11.20
2017-10-13T17:44:17.840Z,14.37
2017-10-13T17:46:45.378Z,17.73
2017-10-13T17:49:12.885Z,22.90
2017-10-13T17:51:40.466Z,26.20
2017-10-13T17:54:08.149Z,15.60
2017-10-13T17:56:35.739Z,13.90
2017-10-13T17:59:04.206Z,20.80
2017-10-13T18:01:32.790Z,20.53
2017-10-13T18:04:00.423Z,12.70
2017-10-13T18:06:28.269Z,14.20
2017-10-13T18:08:56.458Z,14.00
2017-10-13T18:11:25.070Z,15.20
2017-10-13T18:13:52.840Z,20.67
2017-10-13T18:16:21.034Z,17.43
2017-10-13T18:18:49.487Z,14.10
2017-10-13T18:21:17.119Z,19.00
2017-10-13T18:23:44.834Z,20.67
2017-10-13T18:26:12.698Z,18.30
2017-10-13T18:28:41.262Z,12.07
2017-10-13T18:31:09.067Z,22.73
2017-10-13T18:33:36.711Z,13.63
2017-10-13T18:36:04.547Z,17.33
2017-10-13T18:38:32.408Z,16.43
2017-10-13T18:41:01.143Z,37.03
2017-10-13T18:43:28.740Z,46.07
2017-10-13T18:45:57.093Z,22.67
2017-10-13T18:48:25.030Z,23.33
2017-10-13T18:50:52.820Z,15.53
2017-10-13T18:53:21.224Z,20.47
2017-10-13T18:55:48.841Z,15.27
2017-10-13T18:58:17.316Z,18.73
2017-10-13T19:00:45.232Z,22.33
2017-10-13T19:03:12.980Z,17.90
2017-10-13T19:05:40.899Z,16.00
2017-10-13T19:08:08.790Z,20.90
2017-10-13T19:10:36.488Z,14.70
2017-10-13T19:13:05.185Z,13.17
2017-10-13T19:15:32.991Z,10.83
2017-10-13T19:18:01.445Z,16.43
2017-10-13T19:20:29.843Z,18.43
2017-10-13T19:22:57.590Z,18.27
2017-10-13T19:25:25.453Z,15.60
2017-10-13T19:27:53.153Z,14.37
2017-10-13T19:30:20.747Z,20.10
2017-10-13T19:32:48.455Z,17.83
2017-10-13T19:35:16.169Z,13.00
2017-10-13T19:37:43.646Z,16.50
2017-10-13T19:40:11.273Z,17.47
2017-10-13T19:42:38.988Z,19.10
2017-10-13T19:45:07.597Z,13.67
2017-10-13T19:47:35.193Z,16.10
2017-10-13T19:50:03.025Z,14.63
2017-10-13T19:52:30.905Z,15.03
2017-10-13T19:54:59.069Z,21.10
2017-10-13T19:57:28.433Z,22.83
2017-10-13T19:59:56.709Z,19.07
2017-10-13T20:02:25.170Z,18.73
2017-10-13T20:04:52.621Z,17.53
2017-10-13T20:07:20.171Z,16.27
2017-10-13T20:09:48.793Z,16.93
2017-10-13T20:12:17.831Z,17.73
2017-10-13T20:14:45.569Z,18.67
2017-10-13T20:17:13.999Z,18.53
2017-10-13T20:19:42.059Z,15.83
2017-10-13T20:22:09.681Z,16.50
2017-10-13T20:24:37.185Z,25.53
2017-10-13T20:27:04.632Z,19.00
2017-10-13T20:29:32.116Z,16.07
2017-10-13T20:31:59.752Z,18.10
2017-10-13T20:34:27.798Z,15.83
2017-10-13T20:36:55.390Z,30.63
2017-10-13T20:39:22.879Z,19.17
2017-10-13T20:41:50.393Z,23.20
2017-10-13T20:44:17.885Z,27.70
2017-10-13T20:46:45.354Z,19.00
2017-10-13T20:49:13.065Z,18.23
2017-10-13T20:51:40.635Z,19.17
2017-10-13T20:54:08.095Z,19.23
2017-10-13T20:56:35.874Z,20.10
2017-10-13T20:59:03.340Z,17.27
2017-10-13T21:01:30.794Z,24.00
2017-10-13T21:03:58.271Z,28.30
2017-10-13T21:06:26.220Z,21.07
2017-10-13T21:08:53.718Z,25.00
2017-10-13T21:11:21.185Z,25.77
2017-10-13T21:13:49.434Z,22.47
2017-10-13T21:16:17.299Z,19.03
2017-10-13T21:18:45.654Z,24.23
2017-10-13T21:21:13.118Z,18.87
2017-10-13T21:23:40.581Z,23.00
2017-10-13T21:26:08.057Z,26.93
2017-10-13T21:28:35.514Z,25.50
2017-10-13T21:31:02.987Z,23.23
2017-10-13T21:33:30.457Z,16.33
2017-10-13T21:35:57.929Z,20.70
2017-10-13T21:38:25.407Z,23.00
2017-10-13T21:40:52.864Z,19.10
2017-10-13T21:43:20.338Z,20.13
2017-10-13T21:45:47.798Z,20.80
2017-10-13T21:48:16.040Z,21.23
2017-10-13T21:50:44.301Z,19.80
2017-10-13T21:53:11.770Z,25.40
2017-10-13T21:55:39.234Z,18.63
2017-10-13T21:58:06.728Z,24.17
2017-10-13T22:00:34.281Z,22.20
2017-10-13T22:03:01.781Z,24.63
2017-10-13T22:05:29.252Z,17.40
2017-10-13T22:07:56.773Z,27.03
2017-10-13T22:10:24.298Z,27.77
2017-10-13T22:12:51.781Z,21.93
2017-10-13T22:15:19.277Z,20.90
2017-10-13T22:17:46.741Z,23.10
2017-10-13T22:20:14.194Z,19.23
2017-10-13T22:22:41.673Z,20.43
2017-10-13T22:25:09.129Z,16.93
2017-10-13T22:27:36.615Z,22.13
2017-10-13T22:30:04.119Z,26.43
2017-10-13T22:32:31.583Z,26.83
2017-10-13T22:34:59.029Z,20.23
2017-10-13T22:37:26.514Z,20.40
2017-10-13T22:39:54.802Z,17.57
2017-10-13T22:42:23.040Z,26.60
2017-10-13T22:44:50.497Z,17.30
2017-10-13T22:47:17.976Z,17.23
2017-10-13T22:49:46.212Z,21.27
2017-10-13T22:52:13.670Z,16.20
2017-10-13T22:54:41.940Z,18.80
2017-10-13T22:57:09.405Z,20.93
2017-10-13T22:59:36.919Z,14.23
2017-10-13T23:02:05.154Z,18.37
2017-10-13T23:04:32.625Z,19.57
2017-10-13T23:07:00.101Z,19.80
2017-10-13T23:09:28.378Z,19.33
2017-10-13T23:11:56.638Z,21.33
2017-10-13T23:14:24.095Z,18.27
2017-10-13T23:16:51.578Z,22.83
2017-10-13T23:19:19.844Z,20.50
2017-10-13T23:21:48.062Z,19.07
2017-10-13T23:24:15.528Z,16.43
2017-10-13T23:26:43.005Z,22.17
2017-10-13T23:29:10.457Z,20.17
2017-10-13T23:31:37.934Z,18.70
2017-10-13T23:34:05.389Z,30.67
2017-10-13T23:36:32.875Z,17.43
2017-10-13T23:39:02.169Z,17.20
2017-10-13T23:41:29.633Z,20.87
2017-10-13T23:43:57.873Z,16.97
2017-10-13T23:46:25.381Z,22.97
2017-10-13T23:48:53.642Z,18.40
2017-10-13T23:51:21.874Z,18.27
2017-10-13T23:53:49.372Z,19.60
2017-10-13T23:56:16.825Z,21.20
2017-10-13T23:58:44.286Z,22.80
